KOWB/OWB METAR and TAF weather

Enter ICAO airport designator
Station Type Date Time Source
KOWB METAR 2020/10/29 17:35 UTC NOAA

KOWB 291735Z 35009KT 2 1/2SM -RA BR OVC009 12/12 A2964 RMK AO2 RAB06 CIG 005V012 P0001


Station Type Date Time Source
KOWB Decoded METAR 2020/10/29 17:35 UTC NOAA

Owensboro, Owensboro-Daviess County Airport, KY, United States (KOWB) 37-44-24N 087-10-00W
Oct 29, 2020 - 01:35 PM EDT / 2020.10.29 1735 UTC
Wind: from the N (350 degrees) at 10 MPH (9 KT):0
Visibility: 2 1/2 mile(s):0
Sky conditions: overcast
Weather: light rain; mist
Precipitation last hour: 0.01 inches
Temperature: 53 F (12 C)
Dew Point: 53 F (12 C)
Relative Humidity: 100%
Pressure (altimeter): 29.64 in. Hg (1003 hPa)
ob: KOWB 291735Z 35009KT 2 1/2SM -RA BR OVC009 12/12 A2964 RMK AO2 RAB06 CIG 005V012 P0001
cycle: 17

Station Type Date Time Source
KOWB TAF 2020/10/29 18:42 UTC NOAA

TAF KOWB 291739Z 2918/3018 36012G21KT 3SM SHRA BR OVC009
TEMPO 2919/2923 1SM SHRA BR OVC006
FM300000 33015G23KT P6SM OVC012
FM300500 33009KT P6SM OVC016
FM301500 34007KT P6SM BKN025

Example: see airport list